Altona, Indiana
Current Conditions -  °F | °C
As of 11:15 PM on Sunday 25 Jan 2015 (Local Time) from KGWB Reporting Station
Overcast Overcast  
Wind Chill: -11°   Ceiling: 3500
Heat Index: -6°   Visibility: 10mi
Dew Point: -10°   Wind: 8mph
Humidity: 74%   Direction: 40°NE
Pressure: 29.92"   Gusts: NA
Location:  41.3275°N, 85.1414°W
Report Text: KGWB 260415Z AUTO 04007KT 10SM OVC035 M06/M10 A2992 RMK AO2
Loading
Personal Weather Stations






























Interactive Weather Map New forecast layout! Learn more

10-Day Weather Forecast

Advertisements
Track Severe Weather on mobile